sensor_id;sensor_type;location;lat;lon;timestamp;P1;durP1;ratioP1;P2;durP2;ratioP2
26516;SDS011;14190;51.342;6.338;2023-07-29T00:02:09;0.65;;;0.65;;
26516;SDS011;14190;51.342;6.338;2023-07-29T00:04:37;0.57;;;0.57;;
26516;SDS011;14190;51.342;6.338;2023-07-29T00:07:04;0.53;;;0.50;;
26516;SDS011;14190;51.342;6.338;2023-07-29T00:09:32;1.80;;;0.60;;
26516;SDS011;14190;51.342;6.338;2023-07-29T00:11:59;0.37;;;0.37;;
26516;SDS011;14190;51.342;6.338;2023-07-29T00:14:26;2.12;;;1.60;;
26516;SDS011;14190;51.342;6.338;2023-07-29T00:16:54;0.40;;;0.37;;
26516;SDS011;14190;51.342;6.338;2023-07-29T00:19:21;1.12;;;0.80;;
26516;SDS011;14190;51.342;6.338;2023-07-29T00:21:50;0.53;;;0.50;;
26516;SDS011;14190;51.342;6.338;2023-07-29T00:24:17;0.53;;;0.50;;
26516;SDS011;14190;51.342;6.338;2023-07-29T00:26:44;0.55;;;0.55;;
26516;SDS011;14190;51.342;6.338;2023-07-29T00:29:11;0.55;;;0.50;;
26516;SDS011;14190;51.342;6.338;2023-07-29T00:31:39;0.50;;;0.35;;
26516;SDS011;14190;51.342;6.338;2023-07-29T00:34:06;0.42;;;0.42;;
26516;SDS011;14190;51.342;6.338;2023-07-29T00:36:35;1.35;;;1.25;;
26516;SDS011;14190;51.342;6.338;2023-07-29T00:39:03;2.35;;;0.68;;
26516;SDS011;14190;51.342;6.338;2023-07-29T00:41:30;0.47;;;0.47;;
26516;SDS011;14190;51.342;6.338;2023-07-29T00:43:58;1.27;;;0.82;;
26516;SDS011;14190;51.342;6.338;2023-07-29T00:46:25;0.53;;;0.45;;
26516;SDS011;14190;51.342;6.338;2023-07-29T00:48:56;0.50;;;0.20;;
26516;SDS011;14190;51.342;6.338;2023-07-29T00:51:24;0.40;;;0.40;;
26516;SDS011;14190;51.342;6.338;2023-07-29T00:53:51;0.68;;;0.57;;
26516;SDS011;14190;51.342;6.338;2023-07-29T00:56:18;0.65;;;0.65;;
26516;SDS011;14190;51.342;6.338;2023-07-29T00:58:46;0.20;;;0.20;;
26516;SDS011;14190;51.342;6.338;2023-07-29T01:01:13;1.75;;;0.82;;
26516;SDS011;14190;51.342;6.338;2023-07-29T01:03:41;0.28;;;0.25;;
26516;SDS011;14190;51.342;6.338;2023-07-29T01:06:29;0.25;;;0.25;;
26516;SDS011;14190;51.342;6.338;2023-07-29T01:09:02;0.47;;;0.23;;
26516;SDS011;14190;51.342;6.338;2023-07-29T01:13:56;0.95;;;0.75;;
26516;SDS011;14190;51.342;6.338;2023-07-29T01:16:38;0.40;;;0.40;;
26516;SDS011;14190;51.342;6.338;2023-07-29T01:19:04;1.30;;;1.20;;
26516;SDS011;14190;51.342;6.338;2023-07-29T01:21:34;0.65;;;0.65;;
26516;SDS011;14190;51.342;6.338;2023-07-29T01:24:02;0.78;;;0.78;;
26516;SDS011;14190;51.342;6.338;2023-07-29T01:26:30;1.27;;;0.75;;
26516;SDS011;14190;51.342;6.338;2023-07-29T01:28:58;0.23;;;0.23;;
26516;SDS011;14190;51.342;6.338;2023-07-29T01:34:17;0.47;;;0.47;;
26516;SDS011;14190;51.342;6.338;2023-07-29T01:36:39;0.57;;;0.30;;
26516;SDS011;14190;51.342;6.338;2023-07-29T01:39:09;1.15;;;0.40;;
26516;SDS011;14190;51.342;6.338;2023-07-29T01:41:38;1.30;;;0.77;;
26516;SDS011;14190;51.342;6.338;2023-07-29T01:44:07;1.05;;;0.80;;
26516;SDS011;14190;51.342;6.338;2023-07-29T01:46:35;0.53;;;0.53;;
26516;SDS011;14190;51.342;6.338;2023-07-29T01:49:03;1.22;;;1.07;;
26516;SDS011;14190;51.342;6.338;2023-07-29T01:51:31;0.55;;;0.40;;
26516;SDS011;14190;51.342;6.338;2023-07-29T01:53:58;0.50;;;0.50;;
26516;SDS011;14190;51.342;6.338;2023-07-29T01:56:26;0.82;;;0.80;;
26516;SDS011;14190;51.342;6.338;2023-07-29T01:58:55;3.33;;;0.72;;
26516;SDS011;14190;51.342;6.338;2023-07-29T02:01:22;0.55;;;0.55;;
26516;SDS011;14190;51.342;6.338;2023-07-29T02:03:50;1.42;;;0.70;;
26516;SDS011;14190;51.342;6.338;2023-07-29T02:06:19;1.70;;;0.57;;
26516;SDS011;14190;51.342;6.338;2023-07-29T02:08:46;0.30;;;0.30;;
26516;SDS011;14190;51.342;6.338;2023-07-29T02:11:13;0.45;;;0.45;;
26516;SDS011;14190;51.342;6.338;2023-07-29T02:13:41;0.30;;;0.30;;
26516;SDS011;14190;51.342;6.338;2023-07-29T02:16:08;1.70;;;0.40;;
26516;SDS011;14190;51.342;6.338;2023-07-29T02:18:36;0.47;;;0.20;;
26516;SDS011;14190;51.342;6.338;2023-07-29T02:21:04;0.50;;;0.50;;
26516;SDS011;14190;51.342;6.338;2023-07-29T02:23:31;0.20;;;0.20;;
26516;SDS011;14190;51.342;6.338;2023-07-29T02:25:59;0.37;;;0.30;;
26516;SDS011;14190;51.342;6.338;2023-07-29T02:28:27;1.12;;;0.60;;
26516;SDS011;14190;51.342;6.338;2023-07-29T02:31:12;0.85;;;0.45;;
26516;SDS011;14190;51.342;6.338;2023-07-29T02:33:38;2.60;;;1.05;;
26516;SDS011;14190;51.342;6.338;2023-07-29T02:36:06;0.40;;;0.40;;
26516;SDS011;14190;51.342;6.338;2023-07-29T02:38:33;0.47;;;0.47;;
26516;SDS011;14190;51.342;6.338;2023-07-29T02:41:01;1.05;;;0.68;;
26516;SDS011;14190;51.342;6.338;2023-07-29T02:43:28;0.62;;;0.53;;
26516;SDS011;14190;51.342;6.338;2023-07-29T02:45:55;0.53;;;0.53;;
26516;SDS011;14190;51.342;6.338;2023-07-29T02:48:23;0.40;;;0.40;;
26516;SDS011;14190;51.342;6.338;2023-07-29T02:50:50;2.45;;;0.72;;
26516;SDS011;14190;51.342;6.338;2023-07-29T02:53:17;0.70;;;0.45;;
26516;SDS011;14190;51.342;6.338;2023-07-29T02:55:45;0.42;;;0.42;;
26516;SDS011;14190;51.342;6.338;2023-07-29T02:58:12;3.42;;;0.62;;
26516;SDS011;14190;51.342;6.338;2023-07-29T03:00:40;0.78;;;0.45;;
26516;SDS011;14190;51.342;6.338;2023-07-29T03:03:09;0.63;;;0.50;;
26516;SDS011;14190;51.342;6.338;2023-07-29T03:05:37;1.87;;;0.57;;
26516;SDS011;14190;51.342;6.338;2023-07-29T03:08:04;1.37;;;1.20;;
26516;SDS011;14190;51.342;6.338;2023-07-29T03:10:34;0.62;;;0.62;;
26516;SDS011;14190;51.342;6.338;2023-07-29T03:13:00;0.62;;;0.55;;
26516;SDS011;14190;51.342;6.338;2023-07-29T03:15:28;2.35;;;0.50;;
26516;SDS011;14190;51.342;6.338;2023-07-29T03:17:55;1.02;;;0.88;;
26516;SDS011;14190;51.342;6.338;2023-07-29T03:20:23;0.50;;;0.50;;
26516;SDS011;14190;51.342;6.338;2023-07-29T03:22:50;0.42;;;0.42;;
26516;SDS011;14190;51.342;6.338;2023-07-29T03:25:17;0.55;;;0.55;;
26516;SDS011;14190;51.342;6.338;2023-07-29T03:27:45;0.53;;;0.40;;
26516;SDS011;14190;51.342;6.338;2023-07-29T03:30:14;1.27;;;0.80;;
26516;SDS011;14190;51.342;6.338;2023-07-29T03:32:43;0.65;;;0.50;;
26516;SDS011;14190;51.342;6.338;2023-07-29T03:35:11;1.50;;;0.62;;
26516;SDS011;14190;51.342;6.338;2023-07-29T03:37:39;1.00;;;0.37;;
26516;SDS011;14190;51.342;6.338;2023-07-29T03:40:07;1.12;;;0.70;;
26516;SDS011;14190;51.342;6.338;2023-07-29T03:42:36;1.72;;;0.85;;
26516;SDS011;14190;51.342;6.338;2023-07-29T03:45:03;0.55;;;0.30;;
26516;SDS011;14190;51.342;6.338;2023-07-29T03:47:31;3.77;;;1.50;;
26516;SDS011;14190;51.342;6.338;2023-07-29T03:49:58;2.37;;;1.10;;
26516;SDS011;14190;51.342;6.338;2023-07-29T03:52:25;2.75;;;1.57;;
26516;SDS011;14190;51.342;6.338;2023-07-29T03:54:53;1.75;;;1.25;;
26516;SDS011;14190;51.342;6.338;2023-07-29T03:57:20;6.60;;;1.42;;
26516;SDS011;14190;51.342;6.338;2023-07-29T03:59:48;1.22;;;1.15;;
26516;SDS011;14190;51.342;6.338;2023-07-29T04:02:15;1.65;;;1.17;;
26516;SDS011;14190;51.342;6.338;2023-07-29T04:04:43;3.15;;;1.40;;
26516;SDS011;14190;51.342;6.338;2023-07-29T04:07:12;1.35;;;1.25;;
26516;SDS011;14190;51.342;6.338;2023-07-29T04:09:39;1.22;;;1.00;;
26516;SDS011;14190;51.342;6.338;2023-07-29T04:12:07;2.77;;;1.20;;
26516;SDS011;14190;51.342;6.338;2023-07-29T04:14:34;1.72;;;1.05;;
26516;SDS011;14190;51.342;6.338;2023-07-29T04:17:02;4.47;;;2.35;;
26516;SDS011;14190;51.342;6.338;2023-07-29T04:19:29;2.45;;;1.85;;
26516;SDS011;14190;51.342;6.338;2023-07-29T04:21:57;1.98;;;1.45;;
26516;SDS011;14190;51.342;6.338;2023-07-29T04:24:24;1.42;;;0.62;;
26516;SDS011;14190;51.342;6.338;2023-07-29T04:26:52;0.60;;;0.60;;
26516;SDS011;14190;51.342;6.338;2023-07-29T04:29:19;0.82;;;0.78;;
26516;SDS011;14190;51.342;6.338;2023-07-29T04:31:49;5.03;;;2.12;;
26516;SDS011;14190;51.342;6.338;2023-07-29T04:34:22;2.15;;;1.67;;
26516;SDS011;14190;51.342;6.338;2023-07-29T04:36:46;1.77;;;1.50;;
26516;SDS011;14190;51.342;6.338;2023-07-29T04:39:14;2.12;;;1.60;;
26516;SDS011;14190;51.342;6.338;2023-07-29T04:41:42;2.02;;;1.52;;
26516;SDS011;14190;51.342;6.338;2023-07-29T04:44:09;1.12;;;1.02;;
26516;SDS011;14190;51.342;6.338;2023-07-29T04:46:36;1.95;;;1.25;;
26516;SDS011;14190;51.342;6.338;2023-07-29T04:49:05;1.80;;;1.40;;
26516;SDS011;14190;51.342;6.338;2023-07-29T04:51:32;1.05;;;0.72;;
26516;SDS011;14190;51.342;6.338;2023-07-29T04:54:00;3.98;;;1.60;;
26516;SDS011;14190;51.342;6.338;2023-07-29T04:56:27;2.17;;;1.92;;
26516;SDS011;14190;51.342;6.338;2023-07-29T04:58:54;3.62;;;2.25;;
26516;SDS011;14190;51.342;6.338;2023-07-29T05:01:22;4.90;;;2.60;;
26516;SDS011;14190;51.342;6.338;2023-07-29T05:03:49;3.77;;;2.27;;
26516;SDS011;14190;51.342;6.338;2023-07-29T05:06:17;9.05;;;2.55;;
26516;SDS011;14190;51.342;6.338;2023-07-29T05:08:44;5.95;;;3.02;;
26516;SDS011;14190;51.342;6.338;2023-07-29T05:11:11;2.67;;;1.65;;
26516;SDS011;14190;51.342;6.338;2023-07-29T05:13:39;2.77;;;1.90;;
26516;SDS011;14190;51.342;6.338;2023-07-29T05:16:07;1.25;;;1.12;;
26516;SDS011;14190;51.342;6.338;2023-07-29T05:18:34;4.15;;;1.62;;
26516;SDS011;14190;51.342;6.338;2023-07-29T05:21:02;3.85;;;1.82;;
26516;SDS011;14190;51.342;6.338;2023-07-29T05:23:29;2.08;;;1.40;;
26516;SDS011;14190;51.342;6.338;2023-07-29T05:25:56;2.67;;;1.62;;
26516;SDS011;14190;51.342;6.338;2023-07-29T05:28:24;2.95;;;2.12;;
26516;SDS011;14190;51.342;6.338;2023-07-29T05:30:51;11.45;;;2.50;;
26516;SDS011;14190;51.342;6.338;2023-07-29T05:33:19;2.83;;;1.95;;
26516;SDS011;14190;51.342;6.338;2023-07-29T05:35:46;7.83;;;2.27;;
26516;SDS011;14190;51.342;6.338;2023-07-29T05:38:13;2.95;;;1.57;;
26516;SDS011;14190;51.342;6.338;2023-07-29T05:40:41;1.60;;;1.15;;
26516;SDS011;14190;51.342;6.338;2023-07-29T05:43:08;1.67;;;1.00;;
26516;SDS011;14190;51.342;6.338;2023-07-29T05:45:36;3.30;;;1.60;;
26516;SDS011;14190;51.342;6.338;2023-07-29T05:48:04;3.83;;;1.45;;
26516;SDS011;14190;51.342;6.338;2023-07-29T05:50:31;5.67;;;1.12;;
26516;SDS011;14190;51.342;6.338;2023-07-29T05:53:00;4.40;;;1.40;;
26516;SDS011;14190;51.342;6.338;2023-07-29T05:55:27;1.92;;;1.35;;
26516;SDS011;14190;51.342;6.338;2023-07-29T05:57:55;1.05;;;0.93;;
26516;SDS011;14190;51.342;6.338;2023-07-29T06:00:22;1.00;;;0.60;;
26516;SDS011;14190;51.342;6.338;2023-07-29T06:02:49;1.50;;;1.02;;
26516;SDS011;14190;51.342;6.338;2023-07-29T06:05:18;1.47;;;0.90;;
26516;SDS011;14190;51.342;6.338;2023-07-29T06:07:46;2.83;;;1.25;;
26516;SDS011;14190;51.342;6.338;2023-07-29T06:10:15;3.42;;;1.50;;
26516;SDS011;14190;51.342;6.338;2023-07-29T06:12:45;1.07;;;0.42;;
26516;SDS011;14190;51.342;6.338;2023-07-29T06:15:13;0.68;;;0.50;;
26516;SDS011;14190;51.342;6.338;2023-07-29T06:17:40;1.27;;;1.05;;
26516;SDS011;14190;51.342;6.338;2023-07-29T06:20:08;0.88;;;0.78;;
26516;SDS011;14190;51.342;6.338;2023-07-29T06:22:35;1.20;;;0.40;;
26516;SDS011;14190;51.342;6.338;2023-07-29T06:25:03;1.80;;;0.70;;
26516;SDS011;14190;51.342;6.338;2023-07-29T06:27:30;2.80;;;0.70;;
26516;SDS011;14190;51.342;6.338;2023-07-29T06:29:58;12.25;;;1.05;;
26516;SDS011;14190;51.342;6.338;2023-07-29T06:32:25;2.58;;;1.72;;
26516;SDS011;14190;51.342;6.338;2023-07-29T06:34:52;4.45;;;1.65;;
26516;SDS011;14190;51.342;6.338;2023-07-29T06:37:20;1.80;;;1.65;;
26516;SDS011;14190;51.342;6.338;2023-07-29T06:39:48;2.22;;;1.20;;
26516;SDS011;14190;51.342;6.338;2023-07-29T06:42:16;14.58;;;1.82;;
26516;SDS011;14190;51.342;6.338;2023-07-29T06:44:43;3.75;;;2.08;;
26516;SDS011;14190;51.342;6.338;2023-07-29T06:47:12;1.90;;;1.52;;
26516;SDS011;14190;51.342;6.338;2023-07-29T06:49:39;1.70;;;1.35;;
26516;SDS011;14190;51.342;6.338;2023-07-29T06:52:07;1.85;;;1.42;;
26516;SDS011;14190;51.342;6.338;2023-07-29T06:54:34;2.47;;;1.57;;
26516;SDS011;14190;51.342;6.338;2023-07-29T06:57:01;5.85;;;1.42;;
26516;SDS011;14190;51.342;6.338;2023-07-29T06:59:29;1.42;;;1.32;;
26516;SDS011;14190;51.342;6.338;2023-07-29T07:01:56;1.85;;;1.50;;
26516;SDS011;14190;51.342;6.338;2023-07-29T07:04:23;6.83;;;1.80;;
26516;SDS011;14190;51.342;6.338;2023-07-29T07:06:51;1.40;;;1.30;;
26516;SDS011;14190;51.342;6.338;2023-07-29T07:09:19;1.62;;;1.30;;
26516;SDS011;14190;51.342;6.338;2023-07-29T07:11:46;2.45;;;1.55;;
26516;SDS011;14190;51.342;6.338;2023-07-29T07:14:14;1.12;;;1.02;;
26516;SDS011;14190;51.342;6.338;2023-07-29T07:16:41;1.87;;;0.98;;
26516;SDS011;14190;51.342;6.338;2023-07-29T07:19:08;1.22;;;1.05;;
26516;SDS011;14190;51.342;6.338;2023-07-29T07:21:36;1.32;;;1.22;;
26516;SDS011;14190;51.342;6.338;2023-07-29T07:24:03;0.98;;;0.80;;
26516;SDS011;14190;51.342;6.338;2023-07-29T07:26:30;1.35;;;1.05;;
26516;SDS011;14190;51.342;6.338;2023-07-29T07:28:58;1.90;;;0.85;;
26516;SDS011;14190;51.342;6.338;2023-07-29T07:31:25;0.72;;;0.60;;
26516;SDS011;14190;51.342;6.338;2023-07-29T07:33:52;4.00;;;1.12;;
26516;SDS011;14190;51.342;6.338;2023-07-29T07:36:20;0.90;;;0.90;;
26516;SDS011;14190;51.342;6.338;2023-07-29T07:38:47;1.32;;;0.90;;
26516;SDS011;14190;51.342;6.338;2023-07-29T07:41:14;0.85;;;0.72;;
26516;SDS011;14190;51.342;6.338;2023-07-29T07:43:42;1.12;;;0.60;;
26516;SDS011;14190;51.342;6.338;2023-07-29T07:46:09;1.60;;;1.00;;
26516;SDS011;14190;51.342;6.338;2023-07-29T07:48:38;1.55;;;1.20;;
26516;SDS011;14190;51.342;6.338;2023-07-29T07:51:12;1.57;;;0.70;;
26516;SDS011;14190;51.342;6.338;2023-07-29T07:53:39;4.65;;;0.98;;
26516;SDS011;14190;51.342;6.338;2023-07-29T07:56:07;9.33;;;0.80;;
26516;SDS011;14190;51.342;6.338;2023-07-29T07:58:34;1.12;;;0.72;;
26516;SDS011;14190;51.342;6.338;2023-07-29T08:01:05;2.42;;;0.90;;
26516;SDS011;14190;51.342;6.338;2023-07-29T08:03:33;1.47;;;0.85;;
26516;SDS011;14190;51.342;6.338;2023-07-29T08:06:01;0.90;;;0.82;;
26516;SDS011;14190;51.342;6.338;2023-07-29T08:08:29;3.92;;;0.82;;
26516;SDS011;14190;51.342;6.338;2023-07-29T08:10:56;7.62;;;1.17;;
26516;SDS011;14190;51.342;6.338;2023-07-29T08:13:24;0.98;;;0.62;;
26516;SDS011;14190;51.342;6.338;2023-07-29T08:15:52;0.70;;;0.70;;
26516;SDS011;14190;51.342;6.338;2023-07-29T08:18:19;0.65;;;0.65;;
26516;SDS011;14190;51.342;6.338;2023-07-29T08:20:57;0.62;;;0.60;;
26516;SDS011;14190;51.342;6.338;2023-07-29T08:23:25;9.13;;;0.95;;
26516;SDS011;14190;51.342;6.338;2023-07-29T08:25:56;5.03;;;0.98;;
26516;SDS011;14190;51.342;6.338;2023-07-29T08:28:26;0.95;;;0.95;;
26516;SDS011;14190;51.342;6.338;2023-07-29T08:30:53;1.02;;;0.70;;
26516;SDS011;14190;51.342;6.338;2023-07-29T08:33:20;2.47;;;1.12;;
26516;SDS011;14190;51.342;6.338;2023-07-29T08:35:48;0.90;;;0.80;;
26516;SDS011;14190;51.342;6.338;2023-07-29T08:38:15;1.20;;;0.75;;
26516;SDS011;14190;51.342;6.338;2023-07-29T08:43:18;1.30;;;0.78;;
26516;SDS011;14190;51.342;6.338;2023-07-29T08:45:47;1.40;;;1.25;;
26516;SDS011;14190;51.342;6.338;2023-07-29T08:48:15;0.85;;;0.72;;
26516;SDS011;14190;51.342;6.338;2023-07-29T08:50:43;1.35;;;0.85;;
26516;SDS011;14190;51.342;6.338;2023-07-29T08:53:11;1.60;;;0.70;;
26516;SDS011;14190;51.342;6.338;2023-07-29T08:55:39;1.40;;;0.80;;
26516;SDS011;14190;51.342;6.338;2023-07-29T08:58:06;0.53;;;0.53;;
26516;SDS011;14190;51.342;6.338;2023-07-29T09:00:34;0.70;;;0.70;;
26516;SDS011;14190;51.342;6.338;2023-07-29T09:03:02;0.50;;;0.50;;
26516;SDS011;14190;51.342;6.338;2023-07-29T09:05:31;0.75;;;0.75;;
26516;SDS011;14190;51.342;6.338;2023-07-29T09:07:59;1.60;;;1.17;;
26516;SDS011;14190;51.342;6.338;2023-07-29T09:10:28;3.05;;;0.90;;
26516;SDS011;14190;51.342;6.338;2023-07-29T09:12:56;0.78;;;0.55;;
26516;SDS011;14190;51.342;6.338;2023-07-29T09:15:26;0.80;;;0.80;;
26516;SDS011;14190;51.342;6.338;2023-07-29T09:17:55;0.88;;;0.78;;
26516;SDS011;14190;51.342;6.338;2023-07-29T09:20:30;0.53;;;0.53;;
26516;SDS011;14190;51.342;6.338;2023-07-29T09:22:55;1.42;;;1.00;;
26516;SDS011;14190;51.342;6.338;2023-07-29T09:25:24;7.37;;;1.22;;
26516;SDS011;14190;51.342;6.338;2023-07-29T09:27:51;1.20;;;1.07;;
26516;SDS011;14190;51.342;6.338;2023-07-29T09:30:19;2.45;;;1.00;;
26516;SDS011;14190;51.342;6.338;2023-07-29T09:32:46;3.85;;;0.95;;
26516;SDS011;14190;51.342;6.338;2023-07-29T09:35:14;2.80;;;1.10;;
26516;SDS011;14190;51.342;6.338;2023-07-29T09:37:41;0.42;;;0.42;;
26516;SDS011;14190;51.342;6.338;2023-07-29T09:40:13;0.65;;;0.65;;
26516;SDS011;14190;51.342;6.338;2023-07-29T09:42:39;0.80;;;0.78;;
26516;SDS011;14190;51.342;6.338;2023-07-29T09:45:06;0.78;;;0.78;;
26516;SDS011;14190;51.342;6.338;2023-07-29T09:47:34;0.98;;;0.95;;
26516;SDS011;14190;51.342;6.338;2023-07-29T09:50:01;0.78;;;0.57;;
26516;SDS011;14190;51.342;6.338;2023-07-29T09:52:28;1.15;;;1.05;;
26516;SDS011;14190;51.342;6.338;2023-07-29T09:54:56;1.02;;;0.72;;
26516;SDS011;14190;51.342;6.338;2023-07-29T09:57:23;3.62;;;0.78;;
26516;SDS011;14190;51.342;6.338;2023-07-29T09:59:54;1.20;;;0.70;;
26516;SDS011;14190;51.342;6.338;2023-07-29T10:02:22;0.78;;;0.70;;
26516;SDS011;14190;51.342;6.338;2023-07-29T10:04:51;1.57;;;0.95;;
26516;SDS011;14190;51.342;6.338;2023-07-29T10:07:19;0.62;;;0.62;;
26516;SDS011;14190;51.342;6.338;2023-07-29T10:09:47;1.57;;;0.75;;
26516;SDS011;14190;51.342;6.338;2023-07-29T10:12:15;0.72;;;0.45;;
26516;SDS011;14190;51.342;6.338;2023-07-29T10:14:43;0.70;;;0.57;;
26516;SDS011;14190;51.342;6.338;2023-07-29T10:17:11;0.60;;;0.60;;
26516;SDS011;14190;51.342;6.338;2023-07-29T10:19:38;0.40;;;0.40;;
26516;SDS011;14190;51.342;6.338;2023-07-29T10:22:06;0.98;;;0.82;;
26516;SDS011;14190;51.342;6.338;2023-07-29T10:24:33;0.68;;;0.68;;
26516;SDS011;14190;51.342;6.338;2023-07-29T10:27:01;1.15;;;1.02;;
26516;SDS011;14190;51.342;6.338;2023-07-29T10:29:30;1.17;;;0.93;;
26516;SDS011;14190;51.342;6.338;2023-07-29T10:32:00;0.70;;;0.70;;
26516;SDS011;14190;51.342;6.338;2023-07-29T10:34:29;1.37;;;1.05;;
26516;SDS011;14190;51.342;6.338;2023-07-29T10:36:57;1.17;;;0.82;;
26516;SDS011;14190;51.342;6.338;2023-07-29T10:39:25;0.80;;;0.78;;
26516;SDS011;14190;51.342;6.338;2023-07-29T10:41:59;1.25;;;1.15;;
26516;SDS011;14190;51.342;6.338;2023-07-29T10:47:11;1.65;;;0.95;;
26516;SDS011;14190;51.342;6.338;2023-07-29T10:49:42;0.72;;;0.72;;
26516;SDS011;14190;51.342;6.338;2023-07-29T10:52:28;1.02;;;1.02;;
26516;SDS011;14190;51.342;6.338;2023-07-29T10:54:46;1.20;;;1.02;;
26516;SDS011;14190;51.342;6.338;2023-07-29T10:58:15;0.70;;;0.70;;
26516;SDS011;14190;51.342;6.338;2023-07-29T10:59:55;1.77;;;1.20;;
26516;SDS011;14190;51.342;6.338;2023-07-29T11:02:28;4.33;;;0.90;;
26516;SDS011;14190;51.342;6.338;2023-07-29T11:04:51;2.62;;;0.80;;
26516;SDS011;14190;51.342;6.338;2023-07-29T11:07:23;5.75;;;1.22;;
26516;SDS011;14190;51.342;6.338;2023-07-29T11:09:55;0.57;;;0.57;;
26516;SDS011;14190;51.342;6.338;2023-07-29T11:17:44;3.08;;;0.90;;
26516;SDS011;14190;51.342;6.338;2023-07-29T11:20:11;0.80;;;0.65;;
26516;SDS011;14190;51.342;6.338;2023-07-29T11:22:39;3.58;;;0.98;;
26516;SDS011;14190;51.342;6.338;2023-07-29T11:25:07;1.75;;;1.12;;
26516;SDS011;14190;51.342;6.338;2023-07-29T11:27:36;1.02;;;1.00;;
26516;SDS011;14190;51.342;6.338;2023-07-29T11:30:04;0.88;;;0.85;;
26516;SDS011;14190;51.342;6.338;2023-07-29T11:32:32;1.10;;;1.00;;
26516;SDS011;14190;51.342;6.338;2023-07-29T11:35:08;1.10;;;1.00;;
26516;SDS011;14190;51.342;6.338;2023-07-29T11:37:38;1.00;;;0.90;;
26516;SDS011;14190;51.342;6.338;2023-07-29T11:40:02;1.00;;;0.70;;
26516;SDS011;14190;51.342;6.338;2023-07-29T11:42:33;2.67;;;1.00;;
26516;SDS011;14190;51.342;6.338;2023-07-29T11:45:02;1.35;;;0.98;;
26516;SDS011;14190;51.342;6.338;2023-07-29T11:47:30;1.35;;;0.72;;
26516;SDS011;14190;51.342;6.338;2023-07-29T11:50:00;3.27;;;0.80;;
26516;SDS011;14190;51.342;6.338;2023-07-29T11:52:28;0.78;;;0.78;;
26516;SDS011;14190;51.342;6.338;2023-07-29T11:54:55;0.98;;;0.90;;
26516;SDS011;14190;51.342;6.338;2023-07-29T11:57:23;0.88;;;0.88;;
26516;SDS011;14190;51.342;6.338;2023-07-29T11:59:50;2.37;;;0.75;;
26516;SDS011;14190;51.342;6.338;2023-07-29T12:02:19;1.40;;;0.80;;
26516;SDS011;14190;51.342;6.338;2023-07-29T12:04:47;1.50;;;0.75;;
26516;SDS011;14190;51.342;6.338;2023-07-29T12:07:14;2.87;;;1.00;;
26516;SDS011;14190;51.342;6.338;2023-07-29T12:09:42;1.72;;;1.07;;
26516;SDS011;14190;51.342;6.338;2023-07-29T12:12:10;1.95;;;1.20;;
26516;SDS011;14190;51.342;6.338;2023-07-29T12:14:37;1.65;;;0.90;;
26516;SDS011;14190;51.342;6.338;2023-07-29T12:17:05;1.72;;;1.10;;
26516;SDS011;14190;51.342;6.338;2023-07-29T12:19:33;1.57;;;1.20;;
26516;SDS011;14190;51.342;6.338;2023-07-29T12:22:01;2.33;;;1.15;;
26516;SDS011;14190;51.342;6.338;2023-07-29T12:24:29;1.17;;;0.90;;
26516;SDS011;14190;51.342;6.338;2023-07-29T12:26:57;2.87;;;0.93;;
26516;SDS011;14190;51.342;6.338;2023-07-29T12:29:25;5.78;;;1.30;;
26516;SDS011;14190;51.342;6.338;2023-07-29T12:31:59;1.50;;;0.50;;
26516;SDS011;14190;51.342;6.338;2023-07-29T12:34:27;0.50;;;0.50;;
26516;SDS011;14190;51.342;6.338;2023-07-29T12:36:56;0.70;;;0.57;;
26516;SDS011;14190;51.342;6.338;2023-07-29T12:39:24;0.80;;;0.80;;
26516;SDS011;14190;51.342;6.338;2023-07-29T12:41:52;0.88;;;0.28;;
26516;SDS011;14190;51.342;6.338;2023-07-29T12:44:20;1.60;;;0.90;;
26516;SDS011;14190;51.342;6.338;2023-07-29T12:46:47;0.35;;;0.35;;
26516;SDS011;14190;51.342;6.338;2023-07-29T12:49:15;0.85;;;0.80;;
26516;SDS011;14190;51.342;6.338;2023-07-29T12:51:42;1.62;;;0.95;;
26516;SDS011;14190;51.342;6.338;2023-07-29T12:54:10;1.20;;;0.90;;
26516;SDS011;14190;51.342;6.338;2023-07-29T12:56:37;23.47;;;1.07;;
26516;SDS011;14190;51.342;6.338;2023-07-29T12:59:04;1.02;;;0.90;;
26516;SDS011;14190;51.342;6.338;2023-07-29T13:01:32;3.15;;;1.30;;
26516;SDS011;14190;51.342;6.338;2023-07-29T13:03:59;2.05;;;1.47;;
26516;SDS011;14190;51.342;6.338;2023-07-29T13:06:27;6.70;;;1.92;;
26516;SDS011;14190;51.342;6.338;2023-07-29T13:08:54;1.27;;;1.05;;
26516;SDS011;14190;51.342;6.338;2023-07-29T13:11:21;1.82;;;0.98;;
26516;SDS011;14190;51.342;6.338;2023-07-29T13:13:49;3.58;;;1.40;;
26516;SDS011;14190;51.342;6.338;2023-07-29T13:16:16;1.67;;;1.15;;
26516;SDS011;14190;51.342;6.338;2023-07-29T13:18:44;2.05;;;1.40;;
26516;SDS011;14190;51.342;6.338;2023-07-29T13:21:11;2.75;;;1.47;;
26516;SDS011;14190;51.342;6.338;2023-07-29T13:23:38;3.25;;;1.65;;
26516;SDS011;14190;51.342;6.338;2023-07-29T13:26:06;1.52;;;1.42;;
26516;SDS011;14190;51.342;6.338;2023-07-29T13:28:33;2.62;;;1.80;;
26516;SDS011;14190;51.342;6.338;2023-07-29T13:31:00;1.80;;;1.37;;
26516;SDS011;14190;51.342;6.338;2023-07-29T13:33:29;1.70;;;1.40;;
26516;SDS011;14190;51.342;6.338;2023-07-29T13:35:58;3.75;;;1.52;;
26516;SDS011;14190;51.342;6.338;2023-07-29T13:38:25;0.88;;;0.88;;
26516;SDS011;14190;51.342;6.338;2023-07-29T13:40:53;1.70;;;1.60;;
26516;SDS011;14190;51.342;6.338;2023-07-29T13:43:21;5.08;;;1.10;;
26516;SDS011;14190;51.342;6.338;2023-07-29T13:45:48;1.80;;;1.70;;
26516;SDS011;14190;51.342;6.338;2023-07-29T13:48:17;1.72;;;1.50;;
26516;SDS011;14190;51.342;6.338;2023-07-29T13:50:45;2.70;;;1.47;;
26516;SDS011;14190;51.342;6.338;2023-07-29T13:53:12;1.22;;;1.12;;
26516;SDS011;14190;51.342;6.338;2023-07-29T13:55:39;2.08;;;1.27;;
26516;SDS011;14190;51.342;6.338;2023-07-29T13:58:07;1.10;;;1.05;;
26516;SDS011;14190;51.342;6.338;2023-07-29T14:00:34;2.17;;;1.45;;
26516;SDS011;14190;51.342;6.338;2023-07-29T14:03:01;5.10;;;1.52;;
26516;SDS011;14190;51.342;6.338;2023-07-29T14:05:29;3.47;;;1.37;;
26516;SDS011;14190;51.342;6.338;2023-07-29T14:07:56;2.12;;;1.37;;
26516;SDS011;14190;51.342;6.338;2023-07-29T14:10:24;1.45;;;1.35;;
26516;SDS011;14190;51.342;6.338;2023-07-29T14:12:52;2.33;;;1.40;;
26516;SDS011;14190;51.342;6.338;2023-07-29T14:15:19;1.80;;;1.45;;
26516;SDS011;14190;51.342;6.338;2023-07-29T14:17:47;1.98;;;1.25;;
26516;SDS011;14190;51.342;6.338;2023-07-29T14:20:14;3.58;;;1.47;;
26516;SDS011;14190;51.342;6.338;2023-07-29T14:22:41;1.45;;;1.00;;
26516;SDS011;14190;51.342;6.338;2023-07-29T14:25:09;1.42;;;1.27;;
26516;SDS011;14190;51.342;6.338;2023-07-29T14:27:36;0.93;;;0.93;;
26516;SDS011;14190;51.342;6.338;2023-07-29T14:30:04;0.55;;;0.55;;
26516;SDS011;14190;51.342;6.338;2023-07-29T14:32:32;1.52;;;0.98;;
26516;SDS011;14190;51.342;6.338;2023-07-29T14:34:59;1.10;;;0.85;;
26516;SDS011;14190;51.342;6.338;2023-07-29T14:37:29;1.35;;;1.00;;
26516;SDS011;14190;51.342;6.338;2023-07-29T14:39:57;4.28;;;1.42;;
26516;SDS011;14190;51.342;6.338;2023-07-29T14:42:25;1.72;;;1.50;;
26516;SDS011;14190;51.342;6.338;2023-07-29T14:44:52;2.05;;;1.22;;
26516;SDS011;14190;51.342;6.338;2023-07-29T14:47:20;1.22;;;0.95;;
26516;SDS011;14190;51.342;6.338;2023-07-29T14:49:47;1.25;;;0.82;;
26516;SDS011;14190;51.342;6.338;2023-07-29T14:52:14;0.68;;;0.68;;
26516;SDS011;14190;51.342;6.338;2023-07-29T14:54:42;1.17;;;1.00;;
26516;SDS011;14190;51.342;6.338;2023-07-29T14:57:09;1.35;;;0.78;;
26516;SDS011;14190;51.342;6.338;2023-07-29T14:59:37;1.17;;;0.80;;
26516;SDS011;14190;51.342;6.338;2023-07-29T15:02:05;2.52;;;0.75;;
26516;SDS011;14190;51.342;6.338;2023-07-29T15:04:33;0.70;;;0.70;;
26516;SDS011;14190;51.342;6.338;2023-07-29T15:07:02;0.72;;;0.60;;
26516;SDS011;14190;51.342;6.338;2023-07-29T15:09:29;1.05;;;0.70;;